Fletcher, Louisiana
Current Conditions -  °F | °C
As of 2:35 PM on Monday 22 Dec 2014 (Local Time) from KIER Reporting Station
Broken Clouds Broken Clouds  
Wind Chill: 69°   Ceiling: 2300
Heat Index: 69°   Visibility: 10mi
Dew Point: 62°   Wind: 7mph
Humidity: 77%   Direction: 210°SSW
Pressure: 29.59"   Gusts: 17mph
Location:  31.6668°N, 92.8023°W
Report Text: KIER 222035Z AUTO 21006G15KT 10SM BKN023 BKN029 21/16 A2959 RMK AO2 T02060164
Loading
Personal Weather Stations






























Interactive Weather Map New forecast layout! Learn more

10-Day Weather Forecast

Advertisements
Track Severe Weather on mobile